Terminal Aerodrome Forecast
Issued by NWS

Home | Current Version | Previous Version | Text Only | Print | Product List | Glossary On
Versions: 1 2 3 4 5 6 7 8 9 10 11 12 13 14 15 16 17 18 19 20 21 22 23 24 25 26 27 28 29 30 31 32 33 34 35 36 37 38 39 40 41 42 43 44 45 46 47 48 49
948
FTUS43 KMKX 301725
TAFUES
TAF
KUES 301725Z 3018/3118 08011G26KT 3SM -RA BR OVC003
     FM301900 07015G25KT 3SM RA BR OVC003
     FM310000 05011G21KT 1SM -RA BR OVC003
     FM310600 03011G22KT 1 1/2SM BR VCSH OVC008
     FM311200 01010KT 1 1/2SM BR OVC008
     FM311500 01011G22KT 2SM BR OVC008
     FM311700 01011G23KT P6SM OVC010=

USA.gov is the U.S. government's official web portal to all federal, state and local government web resources and services.